createdAt,value
2022-10-10T00:01:37.610Z,10.50
2022-10-10T00:04:06.146Z,10.50
2022-10-10T00:06:33.785Z,10.50
2022-10-10T00:09:03.878Z,10.40
2022-10-10T00:11:31.230Z,10.40
2022-10-10T00:13:58.987Z,10.30
2022-10-10T00:16:26.243Z,10.40
2022-10-10T00:18:53.650Z,10.40
2022-10-10T00:21:20.526Z,10.40
2022-10-10T00:23:47.482Z,10.40
2022-10-10T00:26:18.896Z,10.40
2022-10-10T00:28:47.295Z,10.40
2022-10-10T00:31:14.657Z,10.40
2022-10-10T00:33:41.692Z,10.30
2022-10-10T00:36:08.794Z,10.30
2022-10-10T00:38:36.073Z,10.40
2022-10-10T00:41:04.134Z,10.40
2022-10-10T00:43:32.250Z,10.30
2022-10-10T00:45:59.627Z,10.30
2022-10-10T00:48:40.972Z,10.40
2022-10-10T00:51:19.632Z,10.30
2022-10-10T00:53:53.623Z,10.30
2022-10-10T00:56:30.612Z,10.20
2022-10-10T00:59:05.918Z,10.10
2022-10-10T01:01:32.786Z,10.10
2022-10-10T01:04:03.197Z,10.20
2022-10-10T01:06:31.461Z,10.20
2022-10-10T01:08:59.589Z,10.10
2022-10-10T01:11:52.763Z,10.20
2022-10-10T01:14:55.871Z,10.20
2022-10-10T01:17:54.027Z,10.20
2022-10-10T01:21:13.561Z,10.20
2022-10-10T01:24:47.452Z,10.30
2022-10-10T01:28:04.960Z,10.30
2022-10-10T01:30:34.996Z,10.30
2022-10-10T01:33:29.267Z,10.30
2022-10-10T01:36:32.695Z,10.30
2022-10-10T01:39:29.497Z,10.30
2022-10-10T01:42:10.096Z,10.30
2022-10-10T01:44:36.951Z,10.30
2022-10-10T01:47:03.939Z,10.30
2022-10-10T01:49:34.868Z,10.30
2022-10-10T01:53:16.429Z,10.30
2022-10-10T01:56:20.888Z,10.30
2022-10-10T02:00:01.788Z,10.30
2022-10-10T02:03:26.988Z,10.30
2022-10-10T02:06:11.523Z,10.30
2022-10-10T02:08:51.867Z,10.20
2022-10-10T02:11:19.100Z,10.20
2022-10-10T02:14:02.341Z,10.20
2022-10-10T02:16:41.068Z,10.20
2022-10-10T02:19:16.144Z,10.10
2022-10-10T02:21:45.117Z,10.10
2022-10-10T02:24:14.381Z,10.10
2022-10-10T02:26:50.888Z,10.00
2022-10-10T02:29:29.705Z,10.00
2022-10-10T02:32:25.744Z,10.00
2022-10-10T02:35:03.024Z,10.00
2022-10-10T02:37:31.680Z,10.00
2022-10-10T02:40:04.624Z,9.90
2022-10-10T02:42:33.168Z,10.00
2022-10-10T02:45:00.797Z,9.90
2022-10-10T02:47:27.981Z,9.90
2022-10-10T02:49:54.940Z,9.80
2022-10-10T02:52:22.068Z,9.80
2022-10-10T02:54:48.932Z,9.80
2022-10-10T02:57:15.789Z,9.70
2022-10-10T02:59:42.757Z,9.70
2022-10-10T03:02:09.669Z,9.70
2022-10-10T03:04:36.972Z,9.70
2022-10-10T03:07:05.553Z,9.60
2022-10-10T03:09:33.393Z,9.60
2022-10-10T03:12:00.309Z,9.50
2022-10-10T03:14:27.261Z,9.50
2022-10-10T03:16:54.197Z,9.50
2022-10-10T03:19:21.246Z,9.50
2022-10-10T03:21:48.103Z,9.50
2022-10-10T03:24:15.684Z,9.50
2022-10-10T03:26:42.633Z,9.50
2022-10-10T03:29:09.737Z,9.50
2022-10-10T03:31:36.598Z,9.50
2022-10-10T03:34:03.519Z,9.50
2022-10-10T03:36:31.275Z,9.50
2022-10-10T03:38:58.214Z,9.50
2022-10-10T03:41:25.161Z,9.50
2022-10-10T03:43:52.125Z,9.50
2022-10-10T03:46:19.517Z,9.50
2022-10-10T03:48:47.090Z,9.50
2022-10-10T03:51:14.009Z,9.50
2022-10-10T03:53:40.993Z,9.50
2022-10-10T03:56:07.902Z,9.40
2022-10-10T03:58:34.898Z,9.40
2022-10-10T04:01:04.540Z,9.30
2022-10-10T04:03:31.882Z,9.30
2022-10-10T04:05:59.295Z,9.20
2022-10-10T04:08:26.535Z,9.20
2022-10-10T04:10:54.795Z,9.20
2022-10-10T04:13:25.465Z,9.10
2022-10-10T04:15:55.946Z,9.10
2022-10-10T04:18:24.364Z,9.00
2022-10-10T04:20:51.818Z,9.00
2022-10-10T04:23:19.970Z,8.90
2022-10-10T04:25:50.398Z,8.80
2022-10-10T04:28:17.410Z,8.80
2022-10-10T04:30:44.450Z,8.80
2022-10-10T04:33:12.220Z,8.70
2022-10-10T04:35:39.595Z,8.70
2022-10-10T04:38:07.762Z,8.70
2022-10-10T04:40:37.839Z,8.70
2022-10-10T04:43:04.825Z,8.70
2022-10-10T04:45:36.508Z,8.60
2022-10-10T04:48:04.919Z,8.60
2022-10-10T04:50:32.591Z,8.60
2022-10-10T04:52:59.639Z,8.50
2022-10-10T04:55:27.199Z,8.40
2022-10-10T04:57:54.079Z,8.40
2022-10-10T05:00:22.994Z,8.30
2022-10-10T05:02:50.472Z,8.20
2022-10-10T05:05:17.845Z,8.10
2022-10-10T05:07:44.729Z,8.10
2022-10-10T05:10:11.737Z,8.10
2022-10-10T05:12:38.613Z,8.00
2022-10-10T05:15:06.193Z,8.00
2022-10-10T05:17:33.276Z,7.90
2022-10-10T05:20:00.196Z,7.90
2022-10-10T05:22:27.054Z,7.90
2022-10-10T05:24:53.912Z,7.90
2022-10-10T05:27:20.740Z,7.90
2022-10-10T05:29:47.677Z,7.90
2022-10-10T05:32:14.588Z,8.00
2022-10-10T05:34:41.529Z,8.00
2022-10-10T05:37:08.743Z,8.00
2022-10-10T05:39:35.864Z,8.00
2022-10-10T05:42:03.532Z,8.00
2022-10-10T05:44:30.933Z,8.10
2022-10-10T05:46:58.112Z,8.10
2022-10-10T05:49:25.131Z,8.20
2022-10-10T05:51:52.001Z,8.20
2022-10-10T05:54:18.900Z,8.30
2022-10-10T05:56:46.295Z,8.40
2022-10-10T05:59:13.328Z,8.50
2022-10-10T06:01:40.390Z,8.60
2022-10-10T06:04:07.243Z,8.60
2022-10-10T06:06:34.193Z,8.70
2022-10-10T06:09:01.133Z,8.60
2022-10-10T06:11:29.125Z,8.50
2022-10-10T06:13:57.001Z,8.40
2022-10-10T06:16:26.848Z,8.30
2022-10-10T06:18:56.793Z,8.20
2022-10-10T06:21:25.239Z,8.20
2022-10-10T06:23:52.682Z,8.20
2022-10-10T06:26:19.671Z,8.30
2022-10-10T06:28:46.691Z,8.30
2022-10-10T06:31:15.506Z,8.30
2022-10-10T06:33:47.879Z,8.40
2022-10-10T06:36:16.702Z,8.40
2022-10-10T06:38:46.141Z,8.50
2022-10-10T06:41:13.505Z,8.50
2022-10-10T06:43:41.507Z,8.50
2022-10-10T06:46:09.562Z,8.40
2022-10-10T06:48:36.765Z,8.30
2022-10-10T06:51:14.378Z,8.30
2022-10-10T06:53:42.746Z,8.30
2022-10-10T06:56:26.353Z,8.30
2022-10-10T06:58:54.523Z,8.40
2022-10-10T07:01:24.934Z,9.00
2022-10-10T07:03:52.476Z,9.60
2022-10-10T07:06:19.542Z,10.00
2022-10-10T07:08:46.500Z,10.00
2022-10-10T07:11:13.722Z,10.00
2022-10-10T07:13:40.694Z,10.10
2022-10-10T07:16:08.050Z,10.10
2022-10-10T07:18:36.706Z,10.00
2022-10-10T07:21:05.622Z,10.00
2022-10-10T07:23:32.927Z,10.10
2022-10-10T07:26:13.390Z,10.10
2022-10-10T07:28:40.993Z,10.20
2022-10-10T07:31:10.966Z,10.40
2022-10-10T07:33:50.178Z,10.60
2022-10-10T07:36:19.039Z,11.00
2022-10-10T07:38:51.769Z,11.20
2022-10-10T07:41:19.951Z,11.30
2022-10-10T07:43:47.119Z,11.40
2022-10-10T07:46:20.078Z,11.40
2022-10-10T07:48:48.669Z,11.50
2022-10-10T07:51:17.284Z,11.60
2022-10-10T07:53:44.532Z,11.80
2022-10-10T07:56:12.127Z,11.70
2022-10-10T07:58:39.872Z,11.70
2022-10-10T08:03:32.167Z,11.60
2022-10-10T08:06:02.237Z,11.70
2022-10-10T08:08:29.079Z,11.90
2022-10-10T08:10:56.011Z,12.10
2022-10-10T08:13:22.843Z,12.20
2022-10-10T08:15:53.980Z,12.50
2022-10-10T08:18:21.068Z,12.70
2022-10-10T08:20:48.055Z,12.80
2022-10-10T08:23:14.895Z,12.80
2022-10-10T08:25:41.803Z,12.90
2022-10-10T08:28:08.678Z,12.90
2022-10-10T08:30:41.473Z,12.80
2022-10-10T08:33:08.324Z,12.80
2022-10-10T08:35:39.978Z,12.80
2022-10-10T08:38:07.727Z,12.90
2022-10-10T08:40:45.085Z,13.00
2022-10-10T08:43:35.912Z,13.00
2022-10-10T08:46:37.996Z,13.00
2022-10-10T08:49:34.736Z,13.10
2022-10-10T08:52:38.404Z,13.20
2022-10-10T08:55:23.769Z,13.40
2022-10-10T08:58:05.852Z,13.30
2022-10-10T09:00:47.502Z,13.60
2022-10-10T09:03:28.740Z,14.80
2022-10-10T09:06:48.741Z,15.50
2022-10-10T09:09:44.097Z,15.30
2022-10-10T09:13:16.217Z,14.90
2022-10-10T09:16:04.025Z,14.70
2022-10-10T09:19:12.536Z,14.50
2022-10-10T09:21:45.057Z,14.50
2022-10-10T09:24:51.941Z,14.50
2022-10-10T09:27:29.972Z,14.90
2022-10-10T09:30:17.775Z,15.30
2022-10-10T09:33:09.145Z,15.80
2022-10-10T09:35:40.757Z,16.70
2022-10-10T09:39:23.098Z,17.10
2022-10-10T09:42:03.120Z,18.20
2022-10-10T09:44:32.742Z,18.50
2022-10-10T09:47:00.516Z,18.40
2022-10-10T09:49:29.130Z,17.80
2022-10-10T09:51:56.150Z,17.30
2022-10-10T09:54:24.986Z,17.00
2022-10-10T09:56:58.457Z,17.00
2022-10-10T09:59:45.274Z,16.90
2022-10-10T10:02:21.734Z,17.30
2022-10-10T10:04:50.782Z,17.70
2022-10-10T10:07:36.215Z,18.20
2022-10-10T10:10:22.355Z,18.20
2022-10-10T10:12:50.514Z,18.10
2022-10-10T10:15:31.816Z,18.00
2022-10-10T10:18:16.855Z,17.90
2022-10-10T10:20:52.093Z,18.00
2022-10-10T10:23:26.357Z,18.40
2022-10-10T10:26:14.595Z,18.80
2022-10-10T10:28:43.412Z,20.10
2022-10-10T10:31:54.106Z,20.50
2022-10-10T10:35:21.384Z,20.50
2022-10-10T10:38:20.562Z,19.90
2022-10-10T10:41:29.649Z,19.40
2022-10-10T10:44:22.546Z,19.40
2022-10-10T10:50:44.763Z,19.50
2022-10-10T10:53:54.939Z,19.20
2022-10-10T10:57:07.184Z,18.60
2022-10-10T11:00:33.006Z,18.30
2022-10-10T11:03:38.413Z,18.00
2022-10-10T11:06:59.992Z,17.90
2022-10-10T11:09:50.134Z,18.30
2022-10-10T11:13:18.395Z,18.80
2022-10-10T11:16:43.967Z,19.00
2022-10-10T11:19:47.400Z,19.40
2022-10-10T11:22:22.147Z,19.10
2022-10-10T11:25:41.355Z,18.80
2022-10-10T11:28:33.516Z,18.80
2022-10-10T11:31:31.541Z,18.80
2022-10-10T11:34:19.624Z,19.00
2022-10-10T11:36:48.664Z,19.00
2022-10-10T11:39:26.997Z,19.00
2022-10-10T11:42:15.931Z,18.90
2022-10-10T11:44:56.040Z,18.90
2022-10-10T11:48:04.443Z,18.70
2022-10-10T11:50:42.232Z,18.40
2022-10-10T11:53:40.891Z,17.80
2022-10-10T11:56:44.056Z,17.50
2022-10-10T11:59:46.032Z,17.20
2022-10-10T12:02:27.969Z,17.00
2022-10-10T12:04:55.335Z,16.70
2022-10-10T12:07:33.768Z,16.70
2022-10-10T12:10:34.309Z,17.10
2022-10-10T12:13:32.678Z,17.40
2022-10-10T12:16:35.637Z,18.00
2022-10-10T12:19:26.596Z,20.10
2022-10-10T12:22:05.981Z,21.00
2022-10-10T12:24:57.330Z,20.70
2022-10-10T12:27:47.066Z,20.30
2022-10-10T12:30:25.334Z,19.60
2022-10-10T12:32:55.106Z,19.20
2022-10-10T12:35:41.794Z,19.00
2022-10-10T12:38:24.549Z,19.00
2022-10-10T12:40:57.288Z,18.80
2022-10-10T12:44:13.076Z,18.70
2022-10-10T12:46:40.512Z,18.70
2022-10-10T12:49:25.428Z,18.70
2022-10-10T12:52:51.489Z,18.80
2022-10-10T12:55:28.742Z,19.00
2022-10-10T12:58:40.517Z,19.20
2022-10-10T13:01:31.611Z,19.00
2022-10-10T13:03:59.145Z,18.80
2022-10-10T13:06:39.894Z,18.80
2022-10-10T13:09:35.568Z,18.60
2022-10-10T13:12:07.254Z,18.50
2022-10-10T13:14:45.693Z,18.50
2022-10-10T13:17:36.207Z,18.20
2022-10-10T13:20:06.091Z,18.20
2022-10-10T13:22:36.709Z,18.30
2022-10-10T13:25:11.370Z,18.50
2022-10-10T13:27:38.686Z,18.60
2022-10-10T13:30:07.850Z,18.60
2022-10-10T13:32:37.205Z,18.70
2022-10-10T13:35:22.672Z,18.90
2022-10-10T13:38:01.338Z,19.10
2022-10-10T13:40:29.041Z,19.00
2022-10-10T13:42:56.379Z,19.00
2022-10-10T13:45:29.214Z,19.00
2022-10-10T13:48:03.004Z,18.90
2022-10-10T13:50:45.370Z,18.60
2022-10-10T13:53:28.993Z,18.30
2022-10-10T13:56:27.862Z,18.20
2022-10-10T13:59:11.876Z,18.10
2022-10-10T14:01:59.352Z,18.10
2022-10-10T14:04:45.894Z,18.00
2022-10-10T14:07:29.355Z,18.00
2022-10-10T14:10:09.352Z,17.70
2022-10-10T14:12:50.591Z,17.60
2022-10-10T14:15:50.126Z,17.50
2022-10-10T14:18:25.255Z,17.40
2022-10-10T14:20:53.425Z,17.40
2022-10-10T14:23:20.387Z,17.30
2022-10-10T14:25:49.970Z,17.30
2022-10-10T14:28:27.466Z,17.20
2022-10-10T14:30:54.874Z,17.10
2022-10-10T14:33:22.841Z,17.10
2022-10-10T14:35:53.835Z,17.20
2022-10-10T14:38:20.832Z,17.50
2022-10-10T14:40:50.384Z,18.10
2022-10-10T14:43:20.410Z,18.30
2022-10-10T14:45:52.359Z,18.30
2022-10-10T14:48:19.829Z,18.10
2022-10-10T14:50:49.387Z,18.80
2022-10-10T14:53:17.191Z,19.50
2022-10-10T14:55:45.668Z,19.50
2022-10-10T14:58:22.615Z,20.60
2022-10-10T15:00:52.276Z,22.50
2022-10-10T15:03:19.349Z,23.80
2022-10-10T15:05:48.430Z,24.70
2022-10-10T15:08:18.879Z,25.20
2022-10-10T15:10:46.463Z,25.30
2022-10-10T15:13:16.014Z,25.20
2022-10-10T15:15:42.918Z,24.70
2022-10-10T15:18:32.095Z,24.40
2022-10-10T15:20:57.004Z,23.90
2022-10-10T15:23:23.884Z,23.80
2022-10-10T15:25:50.788Z,23.70
2022-10-10T15:28:17.840Z,23.60
2022-10-10T15:30:47.945Z,23.20
2022-10-10T15:33:14.800Z,22.90
2022-10-10T15:36:07.389Z,22.50
2022-10-10T15:38:30.860Z,21.90
2022-10-10T15:41:10.673Z,21.40
2022-10-10T15:43:57.268Z,21.10
2022-10-10T15:46:27.713Z,21.00
2022-10-10T15:49:01.220Z,20.70
2022-10-10T15:51:29.318Z,20.50
2022-10-10T15:53:58.961Z,20.40
2022-10-10T15:56:27.081Z,20.20
2022-10-10T15:59:01.841Z,19.70
2022-10-10T16:01:30.774Z,18.90
2022-10-10T16:03:58.553Z,18.30
2022-10-10T16:06:26.621Z,17.90
2022-10-10T16:09:09.979Z,17.50
2022-10-10T16:11:42.441Z,17.00
2022-10-10T16:14:10.548Z,16.50
2022-10-10T16:16:37.445Z,15.90
2022-10-10T16:19:04.466Z,15.50
2022-10-10T16:21:33.311Z,15.10
2022-10-10T16:24:01.238Z,14.80
2022-10-10T16:26:33.368Z,14.60
2022-10-10T16:29:02.090Z,14.50
2022-10-10T16:31:30.607Z,14.40
2022-10-10T16:33:59.322Z,14.20
2022-10-10T16:36:31.330Z,14.00
2022-10-10T16:38:59.930Z,13.80
2022-10-10T16:41:49.039Z,13.50
2022-10-10T16:44:17.487Z,13.20
2022-10-10T16:46:44.782Z,13.00
2022-10-10T16:49:16.518Z,12.90
2022-10-10T16:51:43.747Z,13.00
2022-10-10T16:54:10.765Z,13.10
2022-10-10T16:56:38.098Z,13.10
2022-10-10T16:59:05.280Z,13.00
2022-10-10T17:01:32.305Z,12.80
2022-10-10T17:04:01.822Z,12.60
2022-10-10T17:06:35.301Z,12.50
2022-10-10T17:09:05.558Z,12.30
2022-10-10T17:11:33.617Z,12.10
2022-10-10T17:14:00.582Z,12.20
2022-10-10T17:17:10.316Z,12.20
2022-10-10T17:19:16.990Z,12.20
2022-10-10T17:21:44.072Z,12.30
2022-10-10T17:24:11.004Z,12.30
2022-10-10T17:26:37.967Z,12.30
2022-10-10T17:29:04.807Z,12.30
2022-10-10T17:31:32.547Z,12.20
2022-10-10T17:33:59.999Z,12.00
2022-10-10T17:36:28.498Z,11.80
2022-10-10T17:38:56.331Z,11.70
2022-10-10T17:41:24.000Z,11.60
2022-10-10T17:43:51.427Z,11.60
2022-10-10T17:46:40.162Z,11.60
2022-10-10T17:49:11.112Z,11.60
2022-10-10T17:51:41.089Z,11.50
2022-10-10T17:54:09.942Z,11.40
2022-10-10T17:56:37.503Z,11.30
2022-10-10T17:59:06.485Z,11.20
2022-10-10T18:01:36.644Z,11.20
2022-10-10T18:04:04.763Z,11.20
2022-10-10T18:06:33.547Z,11.20
2022-10-10T18:09:00.871Z,11.20
2022-10-10T18:11:32.252Z,11.20
2022-10-10T18:14:02.205Z,11.20
2022-10-10T18:16:34.336Z,11.20
2022-10-10T19:19:30.427Z,10.70
2022-10-10T19:21:57.259Z,10.50
2022-10-10T19:24:24.287Z,10.40
2022-10-10T19:26:56.599Z,10.40
2022-10-10T19:29:26.074Z,10.30
2022-10-10T19:31:53.784Z,10.50
2022-10-10T19:34:20.758Z,10.60
2022-10-10T19:36:47.931Z,10.60
2022-10-10T19:39:14.913Z,10.50
2022-10-10T19:41:41.854Z,10.60
2022-10-10T19:44:08.939Z,10.50
2022-10-10T19:46:37.423Z,10.40
2022-10-10T19:49:06.329Z,10.50
2022-10-10T19:51:33.295Z,10.50
2022-10-10T19:54:00.237Z,10.60
2022-10-10T19:56:28.060Z,10.50
2022-10-10T19:59:01.008Z,10.50
2022-10-10T20:01:30.703Z,10.50
2022-10-10T20:03:58.955Z,10.40
2022-10-10T20:06:27.040Z,10.40
2022-10-10T20:08:54.167Z,10.40
2022-10-10T20:11:21.420Z,10.60
2022-10-10T20:13:53.036Z,10.70
2022-10-10T20:16:20.347Z,10.80
2022-10-10T20:18:47.872Z,10.80
2022-10-10T20:21:22.814Z,10.80
2022-10-10T20:23:51.206Z,10.80
2022-10-10T20:26:22.996Z,10.80
2022-10-10T20:28:52.570Z,10.80
2022-10-10T20:31:28.003Z,10.90
2022-10-10T20:34:00.509Z,10.90
2022-10-10T20:36:31.065Z,10.90
2022-10-10T20:39:08.073Z,10.80
2022-10-10T20:41:38.232Z,10.80
2022-10-10T20:44:09.048Z,10.80
2022-10-10T20:46:41.456Z,10.70
2022-10-10T20:49:16.500Z,10.50
2022-10-10T20:51:48.406Z,10.50
2022-10-10T20:54:22.820Z,10.50
2022-10-10T20:56:50.711Z,10.40
2022-10-10T20:59:21.001Z,10.40
2022-10-10T21:01:48.078Z,10.60
2022-10-10T21:04:16.055Z,10.50
2022-10-10T21:06:43.452Z,10.30
2022-10-10T21:09:13.979Z,10.20
2022-10-10T21:11:42.007Z,10.30
2022-10-10T21:14:11.413Z,10.30
2022-10-10T21:16:41.134Z,10.30
2022-10-10T21:19:11.606Z,10.20
2022-10-10T21:21:39.216Z,10.10
2022-10-10T21:24:13.350Z,10.00
2022-10-10T21:26:42.782Z,9.90
2022-10-10T21:29:09.918Z,9.90
2022-10-10T21:31:40.315Z,10.10
2022-10-10T21:34:13.569Z,10.20
2022-10-10T21:36:40.475Z,10.20
2022-10-10T21:39:08.154Z,10.10
2022-10-10T21:41:36.837Z,10.10
2022-10-10T21:44:04.090Z,10.20
2022-10-10T21:46:36.981Z,10.10
2022-10-10T21:49:11.937Z,10.00
2022-10-10T21:51:45.415Z,9.90
2022-10-10T21:54:13.141Z,9.80
2022-10-10T21:56:40.856Z,9.80
2022-10-10T21:59:08.129Z,9.80
2022-10-10T22:01:37.262Z,9.70
2022-10-10T22:04:04.724Z,9.70
2022-10-10T22:06:32.467Z,9.60
2022-10-10T22:09:02.109Z,9.60
2022-10-10T22:11:32.821Z,9.70
2022-10-10T22:14:02.257Z,9.80
2022-10-10T22:16:30.622Z,9.90
2022-10-10T22:18:59.783Z,10.00
2022-10-10T22:21:31.543Z,10.20
2022-10-10T22:24:05.386Z,10.30
2022-10-10T22:26:33.734Z,10.40
2022-10-10T22:29:00.782Z,10.40
2022-10-10T22:31:29.059Z,10.40
2022-10-10T22:33:57.160Z,10.70
2022-10-10T22:36:24.139Z,11.00
2022-10-10T22:38:51.049Z,11.20
2022-10-10T22:41:18.085Z,11.30
2022-10-10T22:43:45.159Z,11.50
2022-10-10T22:46:13.732Z,11.60
2022-10-10T22:48:40.711Z,11.70
2022-10-10T22:51:16.084Z,11.80
2022-10-10T22:53:46.607Z,11.90
2022-10-10T22:56:17.196Z,11.90
2022-10-10T22:58:44.079Z,12.00
2022-10-10T23:01:20.661Z,12.00
2022-10-10T23:03:48.040Z,12.00
2022-10-10T23:06:15.787Z,12.00
2022-10-10T23:08:42.768Z,12.00
2022-10-10T23:11:09.644Z,12.00
2022-10-10T23:13:36.783Z,12.00
2022-10-10T23:16:04.719Z,12.00
2022-10-10T23:18:32.368Z,12.00
2022-10-10T23:20:59.631Z,12.00
2022-10-10T23:23:26.591Z,12.00
2022-10-10T23:25:53.592Z,12.00
2022-10-10T23:28:20.640Z,12.00
2022-10-10T23:30:48.951Z,11.90
2022-10-10T23:33:17.259Z,11.90
2022-10-10T23:35:44.653Z,11.90
2022-10-10T23:38:11.804Z,12.00
2022-10-10T23:40:38.708Z,12.00
2022-10-10T23:43:07.242Z,12.00
2022-10-10T23:45:34.211Z,12.00
2022-10-10T23:48:01.156Z,12.10
2022-10-10T23:50:28.980Z,12.10
2022-10-10T23:52:55.836Z,12.00
2022-10-10T23:55:22.784Z,12.00
2022-10-10T23:57:49.784Z,12.00
